Terminal Aerodrome Forecast
Issued by NWS

Home | Current Version | Previous Version | Text Only | Print | Product List | Glossary Off
Versions: 1 2 3 4 5 6 7 8 9 10 11 12 13 14 15 16 17 18 19 20 21 22

195
FTUS43 KFGF 210544 AAA
TAFBJI
TAF AMD
KBJI 210544Z 2106/2206 30022G32KT P6SM -SN BKN015 OVC025
      TEMPO 2106/2109 5SM -SN OVC015
     FM211400 31017G27KT P6SM OVC030
     FM212000 30015KT P6SM SCT030=

USA.gov is the U.S. government's official web portal to all federal, state and local government web resources and services.